createdAt,value
2018-04-18T00:01:45.881Z,63.90
2018-04-18T00:04:14.124Z,64.00
2018-04-18T00:06:43.128Z,64.40
2018-04-18T00:09:11.383Z,64.20
2018-04-18T00:11:40.392Z,65.10
2018-04-18T00:14:09.424Z,64.50
2018-04-18T00:16:37.643Z,64.50
2018-04-18T00:19:06.659Z,64.80
2018-04-18T00:21:34.890Z,64.70
2018-04-18T00:24:03.136Z,64.80
2018-04-18T00:26:31.390Z,64.80
2018-04-18T00:28:59.640Z,65.10
2018-04-18T00:31:27.887Z,65.10
2018-04-18T00:33:56.108Z,65.10
2018-04-18T00:36:25.116Z,65.10
2018-04-18T00:38:53.366Z,65.00
2018-04-18T00:41:22.356Z,64.50
2018-04-18T00:43:50.578Z,65.20
2018-04-18T00:46:18.828Z,65.30
2018-04-18T00:48:47.803Z,65.80
2018-04-18T00:51:16.831Z,66.60
2018-04-18T00:53:45.076Z,65.70
2018-04-18T00:56:14.098Z,65.70
2018-04-18T00:58:42.336Z,65.70
2018-04-18T01:01:11.377Z,65.90
2018-04-18T01:03:39.753Z,65.80
2018-04-18T01:06:08.021Z,65.80
2018-04-18T01:08:36.265Z,65.90
2018-04-18T01:11:04.490Z,66.10
2018-04-18T01:13:32.741Z,66.30
2018-04-18T01:16:01.732Z,66.40
2018-04-18T01:18:30.752Z,66.40
2018-04-18T01:20:58.980Z,66.30
2018-04-18T01:23:27.252Z,66.50
2018-04-18T01:25:55.487Z,66.70
2018-04-18T01:28:23.735Z,66.60
2018-04-18T01:30:52.736Z,66.60
2018-04-18T01:33:21.005Z,66.50
2018-04-18T01:35:50.019Z,66.70
2018-04-18T01:38:18.246Z,66.70
2018-04-18T01:40:47.992Z,66.70
2018-04-18T01:43:16.272Z,66.70
2018-04-18T01:45:44.526Z,66.90
2018-04-18T01:48:13.522Z,66.90
2018-04-18T01:50:42.543Z,67.00
2018-04-18T01:53:10.789Z,66.90
2018-04-18T01:55:39.792Z,67.80
2018-04-18T01:58:08.780Z,67.20
2018-04-18T02:00:37.793Z,67.30
2018-04-18T02:03:06.012Z,67.30
2018-04-18T02:05:34.252Z,67.30
2018-04-18T02:08:02.476Z,67.30
2018-04-18T02:10:31.507Z,67.40
2018-04-18T02:12:59.742Z,67.30
2018-04-18T02:15:27.998Z,67.30
2018-04-18T02:17:56.215Z,67.30
2018-04-18T02:20:25.214Z,67.60
2018-04-18T02:22:53.466Z,67.60
2018-04-18T02:25:21.730Z,67.60
2018-04-18T02:27:49.977Z,67.70
2018-04-18T02:30:18.235Z,67.60
2018-04-18T02:32:46.885Z,67.70
2018-04-18T02:35:15.116Z,67.90
2018-04-18T02:37:43.400Z,67.90
2018-04-18T02:40:11.637Z,67.90
2018-04-18T02:42:40.659Z,68.10
2018-04-18T02:45:08.875Z,68.10
2018-04-18T02:47:37.132Z,68.00
2018-04-18T02:50:05.381Z,68.10
2018-04-18T02:52:33.632Z,68.20
2018-04-18T02:55:02.643Z,68.40
2018-04-18T02:57:30.875Z,68.30
2018-04-18T02:59:59.136Z,68.40
2018-04-18T03:02:27.372Z,68.70
2018-04-18T03:04:55.623Z,68.80
2018-04-18T03:07:24.709Z,69.00
2018-04-18T03:09:52.961Z,68.80
2018-04-18T03:12:21.176Z,69.00
2018-04-18T03:14:50.236Z,68.90
2018-04-18T03:17:18.463Z,68.80
2018-04-18T03:19:46.684Z,69.00
2018-04-18T03:22:15.012Z,69.10
2018-04-18T03:24:43.259Z,69.30
2018-04-18T03:27:11.514Z,69.40
2018-04-18T03:29:39.757Z,69.30
2018-04-18T03:32:08.004Z,69.30
2018-04-18T03:34:37.025Z,69.60
2018-04-18T03:37:05.296Z,69.50
2018-04-18T03:39:33.588Z,69.50
2018-04-18T03:42:01.856Z,69.80
2018-04-18T03:44:30.092Z,70.00
2018-04-18T03:46:58.341Z,70.10
2018-04-18T03:49:26.598Z,70.50
2018-04-18T03:51:54.851Z,70.30
2018-04-18T03:54:23.075Z,70.50
2018-04-18T03:56:52.152Z,70.50
2018-04-18T03:59:20.384Z,70.50
2018-04-18T04:01:49.404Z,70.30
2018-04-18T04:04:17.634Z,70.20
2018-04-18T04:06:47.379Z,70.40
2018-04-18T04:09:15.628Z,70.40
2018-04-18T04:11:43.843Z,70.80
2018-04-18T04:14:12.096Z,71.60
2018-04-18T04:16:52.915Z,70.90
2018-04-18T04:19:33.063Z,70.90
2018-04-18T04:22:13.378Z,71.20
2018-04-18T04:24:43.297Z,71.20
2018-04-18T04:27:11.533Z,71.20
2018-04-18T04:29:39.862Z,71.10
2018-04-18T04:32:08.092Z,71.60
2018-04-18T04:34:36.352Z,71.50
2018-04-18T04:37:04.600Z,71.50
2018-04-18T04:39:32.841Z,71.50
2018-04-18T04:42:01.865Z,71.90
2018-04-18T04:44:30.121Z,71.80
2018-04-18T04:46:59.121Z,72.30
2018-04-18T04:49:28.137Z,72.00
2018-04-18T04:51:56.365Z,72.00
2018-04-18T04:54:24.607Z,72.10
2018-04-18T04:56:52.832Z,72.40
2018-04-18T04:59:21.075Z,72.50
2018-04-18T05:01:49.421Z,72.30
2018-04-18T05:04:17.680Z,72.40
2018-04-18T05:06:45.923Z,72.60
2018-04-18T05:09:14.175Z,72.50
2018-04-18T05:11:42.400Z,72.50
2018-04-18T05:14:10.643Z,72.60
2018-04-18T05:16:40.507Z,72.70
2018-04-18T05:19:08.947Z,72.70
2018-04-18T05:21:37.164Z,72.90
2018-04-18T05:24:05.394Z,73.00
2018-04-18T05:26:35.161Z,72.90
2018-04-18T05:29:03.393Z,72.80
2018-04-18T05:31:32.404Z,72.90
2018-04-18T05:34:01.424Z,72.70
2018-04-18T05:36:29.655Z,72.70
2018-04-18T05:38:58.679Z,72.90
2018-04-18T05:41:27.672Z,73.10
2018-04-18T05:43:55.921Z,73.10
2018-04-18T05:46:24.911Z,73.10
2018-04-18T05:48:54.012Z,72.90
2018-04-18T05:51:22.252Z,72.70
2018-04-18T05:53:50.528Z,73.00
2018-04-18T05:56:18.779Z,72.70
2018-04-18T05:58:47.000Z,72.60
2018-04-18T06:01:15.275Z,72.60
2018-04-18T06:03:43.563Z,72.50
2018-04-18T06:06:11.816Z,72.50
2018-04-18T06:08:40.079Z,72.20
2018-04-18T06:11:08.338Z,72.10
2018-04-18T06:13:37.309Z,72.00
2018-04-18T06:16:05.536Z,71.90
2018-04-18T06:18:33.788Z,71.80
2018-04-18T06:21:02.018Z,71.70
2018-04-18T06:23:30.267Z,71.60
2018-04-18T06:25:58.496Z,71.60
2018-04-18T06:28:26.724Z,71.50
2018-04-18T06:30:54.960Z,71.50
2018-04-18T06:33:23.201Z,71.30
2018-04-18T06:35:51.439Z,71.30
2018-04-18T06:38:19.680Z,71.20
2018-04-18T06:40:47.927Z,71.00
2018-04-18T06:43:16.922Z,70.60
2018-04-18T06:45:45.940Z,70.50
2018-04-18T06:48:14.191Z,70.40
2018-04-18T06:50:43.205Z,69.90
2018-04-18T06:53:11.449Z,69.80
2018-04-18T06:55:39.673Z,69.50
2018-04-18T06:58:07.949Z,69.20
2018-04-18T07:00:36.188Z,69.10
2018-04-18T07:03:05.181Z,68.90
2018-04-18T07:05:33.424Z,68.80
2018-04-18T07:08:02.411Z,68.30
2018-04-18T07:10:30.675Z,68.30
2018-04-18T07:12:58.905Z,68.00
2018-04-18T07:15:27.917Z,67.90
2018-04-18T07:17:56.136Z,67.90
2018-04-18T07:20:24.385Z,67.60
2018-04-18T07:22:52.618Z,67.70
2018-04-18T07:25:20.868Z,67.70
2018-04-18T07:27:49.099Z,67.40
2018-04-18T07:30:17.354Z,67.20
2018-04-18T07:32:46.380Z,66.80
2018-04-18T07:35:16.093Z,66.60
2018-04-18T07:37:44.316Z,66.60
2018-04-18T07:40:12.576Z,66.20
2018-04-18T07:42:40.828Z,66.30
2018-04-18T07:45:09.071Z,66.10
2018-04-18T07:47:38.069Z,65.90
2018-04-18T07:50:07.081Z,65.50
2018-04-18T07:52:35.304Z,65.30
2018-04-18T07:55:03.561Z,65.40
2018-04-18T07:57:31.792Z,65.20
2018-04-18T08:00:00.818Z,65.10
2018-04-18T08:02:29.056Z,65.10
2018-04-18T08:04:58.044Z,64.60
2018-04-18T08:07:27.056Z,64.40
2018-04-18T08:09:55.305Z,64.40
2018-04-18T08:12:23.552Z,64.20
2018-04-18T08:14:51.792Z,63.80
2018-04-18T08:17:20.013Z,63.50
2018-04-18T08:19:48.264Z,63.60
2018-04-18T08:22:16.484Z,63.40
2018-04-18T08:24:44.735Z,63.10
2018-04-18T08:27:12.968Z,63.20
2018-04-18T08:29:41.221Z,63.30
2018-04-18T08:32:10.208Z,61.80
2018-04-18T08:34:39.228Z,61.00
2018-04-18T08:37:07.468Z,60.90
2018-04-18T08:39:35.699Z,60.30
2018-04-18T08:42:03.948Z,60.00
2018-04-18T08:44:32.938Z,59.40
2018-04-18T08:47:01.960Z,59.50
2018-04-18T08:49:30.190Z,59.40
2018-04-18T08:51:58.433Z,59.40
2018-04-18T08:54:26.658Z,60.00
2018-04-18T08:56:55.671Z,59.60
2018-04-18T08:59:23.915Z,59.50
2018-04-18T09:01:52.164Z,59.00
2018-04-18T09:04:20.393Z,59.00
2018-04-18T09:06:48.621Z,57.80
2018-04-18T09:09:16.880Z,58.00
2018-04-18T09:11:45.115Z,58.50
2018-04-18T09:14:14.108Z,58.60
2018-04-18T09:16:42.363Z,58.60
2018-04-18T09:19:10.589Z,58.50
2018-04-18T09:21:38.826Z,58.40
2018-04-18T09:24:07.835Z,57.20
2018-04-18T09:26:36.092Z,57.20
2018-04-18T09:29:05.085Z,57.10
2018-04-18T09:31:34.171Z,57.40
2018-04-18T09:34:02.447Z,57.40
2018-04-18T09:36:30.644Z,56.60
2018-04-18T09:38:58.892Z,57.00
2018-04-18T09:41:27.117Z,56.50
2018-04-18T09:43:55.378Z,55.90
2018-04-18T09:46:23.727Z,56.40
2018-04-18T09:48:51.925Z,56.40
2018-04-18T09:51:20.940Z,55.60
2018-04-18T09:53:49.199Z,55.60
2018-04-18T09:56:18.206Z,55.70
2018-04-18T09:58:46.424Z,55.60
2018-04-18T10:01:19.551Z,55.10
2018-04-18T10:06:51.248Z,54.20
2018-04-18T10:09:19.518Z,54.10
2018-04-18T10:11:48.503Z,53.90
2018-04-18T10:14:16.774Z,53.90
2018-04-18T10:16:45.765Z,54.10
2018-04-18T10:19:14.784Z,53.90
2018-04-18T10:21:43.140Z,53.90
2018-04-18T10:24:11.359Z,54.20
2018-04-18T10:26:39.576Z,53.40
2018-04-18T10:29:07.800Z,52.80
2018-04-18T10:31:36.054Z,53.00
2018-04-18T10:34:05.037Z,53.30
2018-04-18T10:36:34.086Z,53.40
2018-04-18T10:39:02.304Z,53.30
2018-04-18T10:41:31.329Z,52.50
2018-04-18T10:43:59.558Z,52.50
2018-04-18T10:46:27.791Z,52.70
2018-04-18T10:48:56.025Z,52.00
2018-04-18T10:51:25.025Z,51.70
2018-04-18T10:53:54.107Z,51.60
2018-04-18T10:56:22.379Z,51.60
2018-04-18T10:58:50.629Z,51.50
2018-04-18T11:01:18.849Z,51.10
2018-04-18T11:03:47.870Z,48.80
2018-04-18T11:06:16.093Z,48.80
2018-04-18T11:08:44.331Z,49.70
2018-04-18T11:11:12.581Z,49.30
2018-04-18T11:13:40.811Z,48.60
2018-04-18T11:16:09.109Z,48.60
2018-04-18T11:18:37.367Z,48.60
2018-04-18T11:21:05.577Z,48.80
2018-04-18T11:23:34.593Z,48.20
2018-04-18T11:26:02.827Z,48.10
2018-04-18T11:28:31.105Z,48.50
2018-04-18T11:30:59.332Z,48.90
2018-04-18T11:33:27.563Z,48.90
2018-04-18T11:35:56.582Z,48.50
2018-04-18T11:38:24.821Z,48.40
2018-04-18T11:40:53.085Z,48.20
2018-04-18T11:43:21.340Z,47.30
2018-04-18T11:45:49.549Z,47.70
2018-04-18T11:48:17.806Z,47.60
2018-04-18T11:50:46.062Z,47.40
2018-04-18T11:53:14.316Z,47.30
2018-04-18T11:55:42.563Z,47.40
2018-04-18T11:58:10.829Z,47.40
2018-04-18T12:00:39.083Z,47.50
2018-04-18T12:03:07.350Z,48.00
2018-04-18T12:05:35.574Z,47.60
2018-04-18T12:08:04.619Z,46.40
2018-04-18T12:10:32.842Z,46.30
2018-04-18T12:13:01.865Z,46.70
2018-04-18T12:15:30.141Z,46.60
2018-04-18T12:17:58.401Z,47.00
2018-04-18T12:20:27.412Z,47.40
2018-04-18T12:22:55.683Z,47.30
2018-04-18T12:25:23.925Z,47.50
2018-04-18T12:27:52.177Z,47.90
2018-04-18T12:30:20.412Z,47.80
2018-04-18T12:32:48.727Z,47.60
2018-04-18T12:35:16.956Z,47.60
2018-04-18T12:37:46.032Z,45.20
2018-04-18T12:40:15.036Z,43.80
2018-04-18T12:42:43.288Z,43.80
2018-04-18T12:45:11.507Z,43.50
2018-04-18T12:47:39.752Z,42.80
2018-04-18T12:50:07.989Z,42.70
2018-04-18T12:52:36.240Z,42.60
2018-04-18T12:55:04.485Z,42.30
2018-04-18T12:57:33.525Z,41.80
2018-04-18T13:00:02.501Z,42.30
2018-04-18T13:02:30.724Z,42.30
2018-04-18T13:04:58.974Z,42.90
2018-04-18T13:07:27.213Z,43.20
2018-04-18T13:09:56.228Z,42.30
2018-04-18T13:12:24.547Z,42.30
2018-04-18T13:14:52.727Z,41.90
2018-04-18T13:17:20.959Z,41.40
2018-04-18T13:19:49.215Z,40.40
2018-04-18T13:22:17.473Z,40.50
2018-04-18T13:24:46.520Z,41.30
2018-04-18T13:27:14.788Z,40.90
2018-04-18T13:29:43.032Z,41.00
2018-04-18T13:32:12.036Z,41.00
2018-04-18T13:34:40.291Z,41.00
2018-04-18T13:37:09.284Z,41.70
2018-04-18T13:39:38.272Z,40.80
2018-04-18T13:42:06.516Z,40.70
2018-04-18T13:44:34.746Z,40.60
2018-04-18T13:47:03.748Z,40.90
2018-04-18T13:49:31.997Z,40.40
2018-04-18T13:52:00.235Z,41.00
2018-04-18T13:54:28.493Z,41.10
2018-04-18T13:56:56.732Z,40.10
2018-04-18T13:59:25.719Z,39.90
2018-04-18T14:01:53.968Z,39.80
2018-04-18T14:04:22.249Z,39.30
2018-04-18T14:06:50.502Z,38.90
2018-04-18T14:09:18.732Z,38.80
2018-04-18T14:11:47.719Z,38.80
2018-04-18T14:14:16.728Z,39.10
2018-04-18T14:16:44.992Z,39.00
2018-04-18T14:19:14.000Z,39.00
2018-04-18T14:21:42.977Z,38.90
2018-04-18T14:24:11.981Z,39.40
2018-04-18T14:26:41.037Z,39.80
2018-04-18T14:29:10.021Z,39.30
2018-04-18T14:31:38.264Z,39.30
2018-04-18T14:34:06.493Z,38.60
2018-04-18T14:36:34.736Z,38.40
2018-04-18T14:39:02.970Z,38.80
2018-04-18T14:41:32.017Z,39.20
2018-04-18T14:44:00.238Z,39.20
2018-04-18T14:46:29.227Z,39.00
2018-04-18T14:48:58.252Z,39.00
2018-04-18T14:51:27.344Z,39.40
2018-04-18T14:53:55.604Z,39.40
2018-04-18T14:56:24.594Z,39.20
2018-04-18T14:58:53.632Z,38.90
2018-04-18T15:01:22.600Z,39.60
2018-04-18T15:03:50.823Z,39.50
2018-04-18T15:06:19.063Z,39.70
2018-04-18T15:11:22.777Z,39.60
2018-04-18T15:13:50.996Z,39.50
2018-04-18T15:16:19.228Z,39.30
2018-04-18T15:18:48.224Z,39.40
2018-04-18T15:21:16.484Z,39.40
2018-04-18T15:23:44.708Z,39.70
2018-04-18T15:26:12.927Z,39.90
2018-04-18T15:28:41.909Z,40.40
2018-04-18T15:31:10.924Z,40.50
2018-04-18T15:33:39.173Z,40.50
2018-04-18T15:36:07.412Z,40.30
2018-04-18T15:38:35.640Z,40.30
2018-04-18T15:41:04.655Z,39.80
2018-04-18T15:43:32.896Z,39.80
2018-04-18T15:46:01.145Z,40.20
2018-04-18T15:48:30.137Z,38.90
2018-04-18T15:50:58.368Z,38.80
2018-04-18T15:53:27.368Z,39.20
2018-04-18T15:55:55.643Z,39.20
2018-04-18T15:58:23.868Z,39.80
2018-04-18T16:00:52.116Z,40.20
2018-04-18T16:03:20.346Z,40.70
2018-04-18T16:05:48.586Z,40.50
2018-04-18T16:08:16.809Z,40.30
2018-04-18T16:10:45.832Z,40.10
2018-04-18T16:13:14.065Z,40.00
2018-04-18T16:15:42.343Z,40.10
2018-04-18T16:18:10.564Z,41.10
2018-04-18T16:20:38.809Z,40.20
2018-04-18T16:23:07.793Z,40.30
2018-04-18T16:25:36.904Z,40.30
2018-04-18T16:28:05.134Z,40.60
2018-04-18T16:30:41.307Z,41.40
2018-04-18T16:33:09.524Z,40.60
2018-04-18T16:35:37.740Z,40.50
2018-04-18T16:38:05.989Z,40.70
2018-04-18T16:40:34.219Z,41.00
2018-04-18T16:43:02.462Z,40.90
2018-04-18T16:45:31.448Z,40.80
2018-04-18T16:47:59.683Z,40.80
2018-04-18T16:50:28.756Z,41.20
2018-04-18T16:52:56.966Z,41.20
2018-04-18T16:55:25.205Z,41.10
2018-04-18T16:57:53.456Z,41.40
2018-04-18T17:00:21.685Z,41.40
2018-04-18T17:02:50.693Z,41.60
2018-04-18T17:05:18.914Z,41.50
2018-04-18T17:07:47.197Z,41.20
2018-04-18T17:10:15.389Z,40.70
2018-04-18T17:12:43.697Z,41.10
2018-04-18T17:15:11.873Z,41.10
2018-04-18T17:17:40.114Z,41.20
2018-04-18T17:20:08.333Z,41.50
2018-04-18T17:22:36.551Z,41.70
2018-04-18T17:25:04.855Z,41.90
2018-04-18T17:27:33.844Z,42.20
2018-04-18T17:30:02.858Z,42.20
2018-04-18T17:32:31.097Z,42.20
2018-04-18T17:34:59.340Z,42.20
2018-04-18T17:37:27.592Z,42.50
2018-04-18T17:39:55.820Z,42.60
2018-04-18T17:42:24.081Z,42.60
2018-04-18T17:44:52.326Z,42.70
2018-04-18T17:47:20.552Z,42.90
2018-04-18T17:49:48.779Z,43.10
2018-04-18T17:52:17.035Z,43.00
2018-04-18T17:54:46.025Z,43.30
2018-04-18T17:57:15.012Z,43.50
2018-04-18T17:59:44.036Z,43.60
2018-04-18T18:02:12.251Z,43.60
2018-04-18T18:04:40.492Z,43.70
2018-04-18T18:07:08.762Z,44.60
2018-04-18T18:09:36.975Z,44.00
2018-04-18T18:12:05.221Z,44.40
2018-04-18T18:14:33.464Z,44.50
2018-04-18T18:17:02.488Z,44.90
2018-04-18T18:19:30.717Z,44.80
2018-04-18T18:21:58.961Z,45.40
2018-04-18T18:24:27.211Z,45.60
2018-04-18T18:26:55.451Z,45.70
2018-04-18T18:29:24.472Z,46.20
2018-04-18T18:31:52.689Z,46.20
2018-04-18T18:34:20.940Z,46.50
2018-04-18T18:36:49.166Z,46.70
2018-04-18T18:39:17.405Z,47.00
2018-04-18T18:41:45.654Z,47.20
2018-04-18T18:44:13.895Z,47.60
2018-04-18T18:46:42.123Z,47.60
2018-04-18T18:49:10.373Z,47.70
2018-04-18T18:51:38.624Z,48.00
2018-04-18T18:54:06.910Z,48.20
2018-04-18T18:56:35.114Z,49.20
2018-04-18T18:59:03.364Z,48.70
2018-04-18T19:01:32.396Z,48.90
2018-04-18T19:04:00.624Z,48.90
2018-04-18T19:06:29.641Z,49.40
2018-04-18T19:08:57.896Z,49.30
2018-04-18T19:11:26.888Z,49.70
2018-04-18T19:13:55.923Z,50.70
2018-04-18T19:16:24.145Z,49.90
2018-04-18T19:18:52.415Z,50.20
2018-04-18T19:21:20.657Z,50.50
2018-04-18T19:23:48.909Z,50.90
2018-04-18T19:26:17.163Z,51.20
2018-04-18T19:28:45.385Z,51.20
2018-04-18T19:31:13.730Z,51.40
2018-04-18T19:33:41.944Z,51.40
2018-04-18T19:36:10.198Z,51.60
2018-04-18T19:38:38.446Z,51.90
2018-04-18T19:41:07.461Z,52.60
2018-04-18T19:43:35.688Z,52.00
2018-04-18T19:46:03.944Z,52.20
2018-04-18T19:48:32.173Z,52.30
2018-04-18T19:51:01.194Z,52.60
2018-04-18T19:53:29.454Z,52.50
2018-04-18T19:55:58.457Z,52.90
2018-04-18T19:58:26.680Z,52.80
2018-04-18T20:00:54.928Z,53.00
2018-04-18T20:03:23.156Z,53.30
2018-04-18T20:05:52.205Z,54.20
2018-04-18T20:08:20.432Z,53.50
2018-04-18T20:10:49.450Z,53.60
2018-04-18T20:13:17.676Z,53.60
2018-04-18T20:15:45.931Z,53.70
2018-04-18T20:18:14.159Z,53.90
2018-04-18T20:20:43.178Z,55.00
2018-04-18T20:23:11.410Z,54.90
2018-04-18T20:25:39.692Z,55.20
2018-04-18T20:28:07.900Z,55.10
2018-04-18T20:30:36.909Z,55.30
2018-04-18T20:33:05.164Z,55.20
2018-04-18T20:35:34.157Z,55.40
2018-04-18T20:38:02.444Z,55.30
2018-04-18T20:40:30.698Z,55.40
2018-04-18T20:42:59.707Z,55.30
2018-04-18T20:45:27.939Z,55.30
2018-04-18T20:47:56.186Z,55.50
2018-04-18T20:50:24.410Z,55.60
2018-04-18T20:52:53.519Z,56.80
2018-04-18T20:55:22.020Z,56.10
2018-04-18T20:57:51.026Z,57.00
2018-04-18T21:00:19.243Z,56.90
2018-04-18T21:02:47.496Z,56.90
2018-04-18T21:05:16.505Z,56.90
2018-04-18T21:07:44.709Z,56.90
2018-04-18T21:10:13.731Z,57.00
2018-04-18T21:12:41.956Z,57.00
2018-04-18T21:15:10.212Z,57.00
2018-04-18T21:17:38.482Z,56.90
2018-04-18T21:20:06.740Z,56.90
2018-04-18T21:22:35.034Z,57.10
2018-04-18T21:25:03.278Z,57.70
2018-04-18T21:27:32.279Z,58.10
2018-04-18T21:30:00.529Z,58.10
2018-04-18T21:32:29.549Z,58.50
2018-04-18T21:34:57.775Z,58.50
2018-04-18T21:37:26.032Z,58.60
2018-04-18T21:39:54.264Z,58.60
2018-04-18T21:42:22.518Z,58.80
2018-04-18T21:44:50.736Z,58.90
2018-04-18T21:47:18.997Z,59.00
2018-04-18T21:49:47.246Z,59.20
2018-04-18T21:52:15.473Z,59.40
2018-04-18T21:54:43.719Z,59.50
2018-04-18T21:57:12.832Z,59.70
2018-04-18T21:59:41.047Z,59.60
2018-04-18T22:02:09.279Z,60.00
2018-04-18T22:04:37.528Z,61.00
2018-04-18T22:07:06.531Z,61.40
2018-04-18T22:09:34.768Z,61.30
2018-04-18T22:12:02.997Z,61.70
2018-04-18T22:14:31.244Z,61.80
2018-04-18T22:16:59.549Z,63.10
2018-04-18T22:19:27.753Z,63.40
2018-04-18T22:21:55.980Z,63.70
2018-04-18T22:24:25.005Z,63.50
2018-04-18T22:26:53.237Z,63.40
2018-04-18T22:29:21.494Z,63.30
2018-04-18T22:31:49.734Z,63.20
2018-04-18T22:34:17.955Z,63.10
2018-04-18T22:36:46.237Z,63.10
2018-04-18T22:39:14.475Z,63.10
2018-04-18T22:41:42.721Z,63.50
2018-04-18T22:44:10.975Z,63.40
2018-04-18T22:46:39.208Z,63.30
2018-04-18T22:49:07.453Z,63.50
2018-04-18T22:51:35.705Z,63.70
2018-04-18T22:54:04.702Z,64.10
2018-04-18T22:56:33.721Z,63.80
2018-04-18T22:59:01.948Z,63.70
2018-04-18T23:01:30.188Z,64.70
2018-04-18T23:03:58.447Z,64.50
2018-04-18T23:06:26.673Z,64.80
2018-04-18T23:08:54.936Z,64.70
2018-04-18T23:11:23.151Z,64.60
2018-04-18T23:13:52.167Z,64.70
2018-04-18T23:16:20.400Z,64.60
2018-04-18T23:18:48.670Z,64.50
2018-04-18T23:21:16.910Z,64.20
2018-04-18T23:23:45.124Z,64.30
2018-04-18T23:26:13.398Z,64.30
2018-04-18T23:28:41.619Z,64.90
2018-04-18T23:31:09.862Z,65.60
2018-04-18T23:33:38.110Z,66.40
2018-04-18T23:36:06.335Z,67.20
2018-04-18T23:38:35.359Z,67.40
2018-04-18T23:41:03.605Z,67.40
2018-04-18T23:43:31.841Z,67.30
2018-04-18T23:46:00.119Z,67.60
2018-04-18T23:48:28.360Z,68.00
2018-04-18T23:50:56.606Z,68.10
2018-04-18T23:53:25.623Z,68.30
2018-04-18T23:55:53.857Z,68.30
2018-04-18T23:58:22.084Z,68.30
